Neilburg, Canada
Current Conditions -  °F | °C
As of 3:00 PM on Thursday 18 Dec 2014 (Local Time) from CYLL Reporting Station
Haze Haze  
Wind Chill: -14°   Ceiling: 200
Heat Index: -9°   Visibility: 0.75mi
Dew Point: -10°   Wind: 6mph
Humidity: 93%   Direction: 240°WSW
Pressure: 29.84"   Gusts: NA
Location:  52.83°N, 109.63°W
Report Text: CYLL 182100Z 24005KT 3/4SM BR OVC002 M09/M10 A2984 RMK ST8 SLP149
Loading
Personal Weather Stations






























Interactive Weather Map New forecast layout! Learn more

10-Day Weather Forecast

Advertisements
Track Severe Weather on mobile